createdAt,value
2019-02-28T00:00:54.928Z,14.63
2019-02-28T00:03:26.206Z,14.93
2019-02-28T00:05:54.571Z,16.47
2019-02-28T00:08:23.442Z,15.37
2019-02-28T00:10:52.399Z,16.03
2019-02-28T00:13:22.443Z,16.67
2019-02-28T00:15:51.527Z,15.53
2019-02-28T00:18:20.554Z,18.07
2019-02-28T00:20:49.536Z,18.13
2019-02-28T00:23:19.242Z,16.67
2019-02-28T00:25:48.944Z,18.20
2019-02-28T00:28:17.780Z,17.63
2019-02-28T00:30:46.731Z,19.87
2019-02-28T00:33:15.658Z,19.93
2019-02-28T00:35:45.469Z,21.70
2019-02-28T00:38:14.323Z,19.20
2019-02-28T00:40:43.256Z,21.30
2019-02-28T00:43:12.171Z,20.67
2019-02-28T00:45:41.220Z,21.73
2019-02-28T00:48:10.055Z,22.23
2019-02-28T00:50:38.999Z,21.33
2019-02-28T00:53:07.889Z,24.20
2019-02-28T00:55:37.055Z,24.63
2019-02-28T00:58:06.003Z,24.93
2019-02-28T01:00:37.071Z,25.70
2019-02-28T01:03:05.864Z,26.40
2019-02-28T01:05:36.592Z,28.93
2019-02-28T01:08:05.461Z,30.93
2019-02-28T01:10:38.845Z,33.70
2019-02-28T01:13:05.136Z,35.70
2019-02-28T01:15:34.190Z,33.70
2019-02-28T01:18:03.251Z,37.90
2019-02-28T01:20:32.123Z,36.73
2019-02-28T01:23:01.109Z,37.13
2019-02-28T01:25:30.039Z,37.17
2019-02-28T01:27:58.968Z,38.53
2019-02-28T01:30:27.952Z,38.60
2019-02-28T01:32:56.839Z,38.60
2019-02-28T01:35:25.711Z,40.80
2019-02-28T01:37:54.670Z,41.93
2019-02-28T01:40:23.543Z,40.87
2019-02-28T01:42:54.933Z,40.50
2019-02-28T01:45:23.048Z,41.87
2019-02-28T01:47:52.426Z,40.30
2019-02-28T01:50:21.549Z,41.73
2019-02-28T01:52:50.532Z,43.30
2019-02-28T01:55:19.493Z,42.13
2019-02-28T01:57:48.427Z,41.07
2019-02-28T02:00:17.670Z,43.57
2019-02-28T02:02:46.584Z,43.30
2019-02-28T02:05:16.882Z,43.93
2019-02-28T02:07:46.250Z,44.10
2019-02-28T02:10:21.286Z,45.50
2019-02-28T02:12:49.918Z,49.10
2019-02-28T02:15:18.923Z,47.57
2019-02-28T02:17:47.835Z,45.03
2019-02-28T02:20:16.879Z,47.83
2019-02-28T02:22:45.816Z,45.50
2019-02-28T02:25:14.976Z,47.50
2019-02-28T02:27:43.907Z,46.43
2019-02-28T02:30:16.318Z,50.47
2019-02-28T02:32:45.258Z,49.60
2019-02-28T02:35:14.352Z,49.63
2019-02-28T02:37:43.279Z,46.63
2019-02-28T02:40:12.718Z,49.97
2019-02-28T02:42:47.147Z,50.53
2019-02-28T02:45:12.751Z,46.80
2019-02-28T02:47:41.599Z,51.67
2019-02-28T02:50:12.411Z,50.50
2019-02-28T02:52:41.347Z,50.87
2019-02-28T02:55:10.427Z,52.03
2019-02-28T02:57:39.487Z,50.90
2019-02-28T03:00:13.799Z,54.20
2019-02-28T03:02:42.298Z,52.73
2019-02-28T03:05:11.360Z,54.33
2019-02-28T03:07:40.381Z,54.47
2019-02-28T03:10:10.514Z,56.63
2019-02-28T03:12:39.484Z,56.20
2019-02-28T03:15:09.759Z,53.83
2019-02-28T03:17:38.779Z,50.83
2019-02-28T03:20:08.898Z,53.97
2019-02-28T03:22:37.856Z,53.07
2019-02-28T03:25:07.259Z,55.70
2019-02-28T03:27:36.084Z,53.00
2019-02-28T03:30:05.851Z,51.47
2019-02-28T03:32:42.173Z,54.37
2019-02-28T03:35:05.784Z,56.70
2019-02-28T03:37:34.788Z,50.13
2019-02-28T03:40:05.165Z,56.90
2019-02-28T03:42:34.267Z,47.57
2019-02-28T03:45:03.167Z,50.70
2019-02-28T03:47:32.139Z,51.57
2019-02-28T03:50:00.960Z,51.70
2019-02-28T03:52:29.788Z,45.20
2019-02-28T03:55:03.408Z,50.90
2019-02-28T03:57:29.666Z,47.83
2019-02-28T03:59:58.639Z,51.03
2019-02-28T04:02:27.635Z,54.03
2019-02-28T04:04:56.526Z,53.97
2019-02-28T04:07:25.567Z,54.43
2019-02-28T04:09:54.434Z,50.47
2019-02-28T04:12:23.433Z,52.33
2019-02-28T04:14:52.335Z,54.10
2019-02-28T04:17:21.345Z,54.27
2019-02-28T04:19:50.247Z,58.07
2019-02-28T04:22:19.417Z,51.03
2019-02-28T04:24:49.708Z,57.40
2019-02-28T04:27:18.565Z,57.07
2019-02-28T04:29:47.378Z,54.07
2019-02-28T04:32:16.222Z,55.60
2019-02-28T04:34:45.855Z,56.00
2019-02-28T04:37:15.646Z,54.03
2019-02-28T04:39:44.544Z,55.20
2019-02-28T04:42:13.772Z,54.43
2019-02-28T04:44:42.623Z,61.50
2019-02-28T04:47:11.443Z,59.20
2019-02-28T04:49:40.367Z,60.13
2019-02-28T04:52:11.812Z,59.33
2019-02-28T04:54:39.963Z,61.80
2019-02-28T04:57:08.794Z,61.93
2019-02-28T04:59:37.707Z,58.20
2019-02-28T05:02:06.512Z,65.93
2019-02-28T05:04:36.158Z,66.37
2019-02-28T05:07:05.694Z,62.03
2019-02-28T05:09:34.528Z,66.00
2019-02-28T05:12:05.227Z,69.33
2019-02-28T05:14:33.978Z,69.83
2019-02-28T05:17:02.842Z,69.47
2019-02-28T05:19:32.307Z,66.90
2019-02-28T05:22:02.215Z,66.53
2019-02-28T05:24:31.119Z,66.87
2019-02-28T05:27:01.216Z,69.77
2019-02-28T05:29:30.266Z,69.80
2019-02-28T05:32:00.947Z,70.70
2019-02-28T05:34:29.688Z,70.27
2019-02-28T05:36:58.656Z,67.63
2019-02-28T05:39:28.234Z,67.63
2019-02-28T05:41:58.085Z,66.47
2019-02-28T05:44:27.131Z,64.43
2019-02-28T05:46:58.178Z,63.70
2019-02-28T05:49:26.602Z,71.50
2019-02-28T05:51:58.707Z,67.23
2019-02-28T05:54:26.001Z,73.03
2019-02-28T05:56:54.831Z,71.00
2019-02-28T05:59:27.418Z,71.50
2019-02-28T06:01:54.294Z,75.57
2019-02-28T06:04:23.223Z,73.90
2019-02-28T06:06:54.637Z,72.03
2019-02-28T06:09:22.702Z,71.63
2019-02-28T06:11:52.699Z,73.97
2019-02-28T06:14:26.488Z,70.03
2019-02-28T06:16:52.059Z,77.97
2019-02-28T06:19:20.866Z,68.47
2019-02-28T06:21:49.695Z,80.40
2019-02-28T06:24:18.604Z,69.73
2019-02-28T06:26:47.508Z,79.27
2019-02-28T06:29:16.304Z,69.07
2019-02-28T06:31:45.540Z,77.43
2019-02-28T06:34:15.737Z,74.30
2019-02-28T06:36:44.643Z,85.07
2019-02-28T06:39:13.561Z,77.70
2019-02-28T06:41:42.466Z,72.00
2019-02-28T06:44:11.303Z,77.77
2019-02-28T06:46:40.871Z,78.43
2019-02-28T06:49:09.812Z,73.13
2019-02-28T06:51:38.672Z,76.70
2019-02-28T06:54:07.800Z,77.60
2019-02-28T06:56:37.637Z,76.87
2019-02-28T06:59:06.527Z,74.90
2019-02-28T07:01:35.415Z,75.57
2019-02-28T07:04:04.307Z,82.43
2019-02-28T07:06:35.688Z,77.60
2019-02-28T07:09:04.857Z,77.87
2019-02-28T07:11:33.723Z,80.53
2019-02-28T07:14:02.555Z,73.83
2019-02-28T07:16:34.419Z,73.67
2019-02-28T07:19:01.951Z,73.13
2019-02-28T07:21:30.848Z,73.37
2019-02-28T07:24:02.436Z,74.87
2019-02-28T07:26:30.379Z,69.60
2019-02-28T07:28:59.227Z,70.30
2019-02-28T07:31:28.077Z,70.53
2019-02-28T07:33:57.008Z,77.33
2019-02-28T07:36:25.933Z,69.50
2019-02-28T07:38:54.839Z,71.03
2019-02-28T07:41:26.789Z,70.63
2019-02-28T07:43:54.346Z,71.77
2019-02-28T07:46:24.697Z,69.97
2019-02-28T07:48:53.702Z,70.80
2019-02-28T07:51:26.195Z,71.43
2019-02-28T07:53:53.147Z,68.90
2019-02-28T07:56:23.856Z,68.93
2019-02-28T07:58:52.662Z,73.10
2019-02-28T08:01:24.573Z,72.40
2019-02-28T08:03:52.089Z,76.50
2019-02-28T08:06:21.199Z,71.07
2019-02-28T08:08:50.071Z,69.60
2019-02-28T08:11:19.946Z,70.17
2019-02-28T08:13:49.617Z,69.90
2019-02-28T08:16:18.449Z,68.33
2019-02-28T08:18:51.033Z,70.13
2019-02-28T08:21:18.152Z,71.60
2019-02-28T08:23:47.071Z,68.70
2019-02-28T08:26:18.804Z,67.13
2019-02-28T08:28:46.587Z,64.67
2019-02-28T08:31:15.495Z,70.53
2019-02-28T08:33:48.005Z,64.57
2019-02-28T08:36:15.116Z,74.17
2019-02-28T08:38:44.241Z,67.27
2019-02-28T08:41:13.171Z,67.27
2019-02-28T08:43:44.678Z,66.97
2019-02-28T08:46:13.855Z,69.87
2019-02-28T08:48:42.921Z,67.77
2019-02-28T08:51:11.963Z,66.90
2019-02-28T08:53:40.803Z,64.13
2019-02-28T08:56:10.986Z,70.07
2019-02-28T08:58:40.255Z,67.70
2019-02-28T09:01:09.316Z,65.20
2019-02-28T09:03:38.337Z,71.90
2019-02-28T09:06:07.551Z,68.87
2019-02-28T09:08:36.620Z,65.87
2019-02-28T09:11:05.493Z,71.83
2019-02-28T09:13:34.431Z,66.40
2019-02-28T09:16:04.860Z,69.07
2019-02-28T09:18:34.162Z,71.07
2019-02-28T09:21:03.218Z,70.43
2019-02-28T09:23:34.480Z,76.63
2019-02-28T09:26:03.499Z,68.60
2019-02-28T09:28:32.463Z,69.17
2019-02-28T09:31:04.704Z,72.37
2019-02-28T09:33:31.974Z,68.00
2019-02-28T09:36:00.871Z,71.67
2019-02-28T09:38:29.834Z,68.50
2019-02-28T09:41:01.412Z,64.17
2019-02-28T09:43:29.515Z,65.23
2019-02-28T09:45:58.680Z,63.40
2019-02-28T09:48:27.739Z,69.47
2019-02-28T09:50:58.204Z,62.03
2019-02-28T09:53:27.485Z,63.30
2019-02-28T09:55:56.577Z,59.87
2019-02-28T09:58:26.228Z,60.93
2019-02-28T10:00:56.313Z,66.47
2019-02-28T10:03:25.286Z,60.87
2019-02-28T10:05:54.237Z,63.23
2019-02-28T10:08:23.171Z,58.13
2019-02-28T10:10:52.463Z,63.33
2019-02-28T10:13:22.763Z,56.97
2019-02-28T10:15:51.629Z,64.70
2019-02-28T10:18:20.679Z,61.07
2019-02-28T10:20:49.716Z,61.27
2019-02-28T10:23:21.412Z,62.23
2019-02-28T10:25:49.403Z,58.50
2019-02-28T10:28:18.511Z,62.50
2019-02-28T10:30:50.169Z,60.10
2019-02-28T10:33:18.404Z,56.93
2019-02-28T10:35:47.433Z,56.83
2019-02-28T10:38:16.415Z,56.87
2019-02-28T10:40:45.367Z,61.77
2019-02-28T10:43:15.474Z,58.77
2019-02-28T10:45:46.117Z,60.10
2019-02-28T10:48:15.138Z,56.40
2019-02-28T10:50:43.998Z,60.50
2019-02-28T10:53:12.841Z,57.27
2019-02-28T10:55:42.395Z,63.57
2019-02-28T10:58:12.548Z,58.40
2019-02-28T11:00:42.951Z,67.57
2019-02-28T11:03:12.158Z,54.17
2019-02-28T11:05:42.725Z,62.10
2019-02-28T11:08:14.775Z,60.10
2019-02-28T11:10:44.245Z,59.40
2019-02-28T11:13:14.773Z,52.30
2019-02-28T11:15:47.884Z,57.17
2019-02-28T11:18:14.924Z,60.63
2019-02-28T11:20:44.144Z,57.00
2019-02-28T11:23:14.827Z,57.00
2019-02-28T11:25:44.447Z,59.43
2019-02-28T11:28:14.182Z,59.93
2019-02-28T11:30:44.836Z,59.40
2019-02-28T11:33:14.682Z,59.97
2019-02-28T11:35:43.659Z,57.90
2019-02-28T11:38:12.835Z,58.10
2019-02-28T11:40:43.697Z,59.60
2019-02-28T11:43:12.683Z,56.90
2019-02-28T11:45:42.747Z,59.53
2019-02-28T11:48:12.853Z,56.47
2019-02-28T11:50:44.730Z,61.23
2019-02-28T11:53:12.712Z,63.00
2019-02-28T11:55:41.908Z,59.27
2019-02-28T11:58:16.247Z,57.13
2019-02-28T12:00:41.713Z,58.73
2019-02-28T12:03:10.731Z,59.50
2019-02-28T12:05:39.816Z,61.03
2019-02-28T12:08:10.485Z,55.83
2019-02-28T12:10:39.521Z,59.73
2019-02-28T12:13:08.547Z,64.03
2019-02-28T12:15:38.994Z,57.60
2019-02-28T12:18:08.288Z,59.43
2019-02-28T12:20:37.229Z,56.47
2019-02-28T12:23:06.310Z,56.83
2019-02-28T12:25:35.234Z,58.57
2019-02-28T12:28:06.570Z,57.87
2019-02-28T12:30:35.780Z,57.93
2019-02-28T12:33:04.886Z,61.70
2019-02-28T12:35:39.964Z,59.60
2019-02-28T12:38:05.183Z,63.43
2019-02-28T12:40:34.322Z,61.80
2019-02-28T12:43:05.403Z,64.03
2019-02-28T12:45:35.677Z,60.13
2019-02-28T12:48:04.849Z,56.83
2019-02-28T12:50:33.775Z,57.43
2019-02-28T12:53:02.724Z,57.57
2019-02-28T12:55:31.816Z,59.50
2019-02-28T12:58:00.930Z,60.17
2019-02-28T13:00:32.463Z,60.83
2019-02-28T13:03:01.455Z,60.70
2019-02-28T13:05:30.789Z,59.13
2019-02-28T13:07:59.787Z,59.10
2019-02-28T13:10:31.051Z,59.83
2019-02-28T13:13:06.273Z,58.40
2019-02-28T13:15:30.791Z,57.03
2019-02-28T13:17:59.919Z,56.00
2019-02-28T13:20:33.507Z,50.23
2019-02-28T13:23:01.179Z,52.73
2019-02-28T13:25:30.327Z,51.23
2019-02-28T13:27:59.351Z,52.37
2019-02-28T13:30:28.746Z,51.67
2019-02-28T13:32:57.815Z,61.20
2019-02-28T13:35:28.410Z,48.40
2019-02-28T13:37:57.468Z,50.90
2019-02-28T13:40:26.559Z,53.90
2019-02-28T13:42:55.616Z,50.77
2019-02-28T13:45:25.473Z,49.87
2019-02-28T13:47:54.422Z,48.73
2019-02-28T13:50:25.917Z,50.93
2019-02-28T13:52:55.723Z,49.83
2019-02-28T13:55:25.062Z,52.83
2019-02-28T13:57:54.167Z,53.30
2019-02-28T14:00:25.364Z,53.10
2019-02-28T14:02:56.092Z,50.77
2019-02-28T14:05:25.119Z,55.87
2019-02-28T14:07:54.036Z,52.30
2019-02-28T14:10:23.994Z,49.67
2019-02-28T14:12:57.187Z,54.87
2019-02-28T14:15:29.891Z,54.17
2019-02-28T14:17:58.934Z,50.63
2019-02-28T14:20:28.472Z,53.77
2019-02-28T14:22:57.532Z,53.70
2019-02-28T14:25:26.949Z,54.27
2019-02-28T14:27:56.817Z,54.23
2019-02-28T14:30:26.690Z,55.80
2019-02-28T14:32:55.836Z,53.13
2019-02-28T14:35:25.086Z,50.73
2019-02-28T14:37:55.642Z,54.77
2019-02-28T14:40:24.757Z,53.67
2019-02-28T14:42:53.863Z,58.67
2019-02-28T14:45:23.181Z,69.90
2019-02-28T14:47:56.870Z,54.63
2019-02-28T14:50:23.326Z,53.23
2019-02-28T14:52:53.308Z,62.57
2019-02-28T14:55:22.325Z,56.90
2019-02-28T14:57:51.200Z,60.47
2019-02-28T15:00:22.408Z,56.40
2019-02-28T15:02:51.540Z,53.90
2019-02-28T15:05:21.616Z,54.57
2019-02-28T15:07:50.750Z,72.47
2019-02-28T15:10:19.996Z,55.83
2019-02-28T15:12:49.142Z,58.33
2019-02-28T15:15:19.007Z,57.90
2019-02-28T15:17:48.105Z,57.70
2019-02-28T15:20:17.135Z,57.93
2019-02-28T15:22:46.081Z,59.83
2019-02-28T15:25:18.672Z,60.67
2019-02-28T15:27:46.693Z,57.87
2019-02-28T15:30:17.811Z,64.47
2019-02-28T15:32:46.658Z,60.67
2019-02-28T15:35:16.790Z,63.53
2019-02-28T15:37:45.932Z,58.93
2019-02-28T15:40:21.454Z,58.57
2019-02-28T15:42:50.824Z,57.67
2019-02-28T15:45:19.887Z,65.70
2019-02-28T15:47:48.754Z,56.17
2019-02-28T15:50:17.664Z,58.07
2019-02-28T15:52:46.695Z,62.77
2019-02-28T15:55:15.823Z,62.10
2019-02-28T15:57:44.774Z,57.43
2019-02-28T16:00:22.264Z,61.10
2019-02-28T16:02:52.092Z,58.53
2019-02-28T16:05:21.198Z,57.77
2019-02-28T16:07:50.597Z,62.93
2019-02-28T16:10:21.340Z,62.73
2019-02-28T16:12:51.189Z,60.97
2019-02-28T16:15:20.315Z,57.17
2019-02-28T16:17:49.320Z,60.60
2019-02-28T16:20:18.347Z,73.73
2019-02-28T16:22:52.061Z,65.00
2019-02-28T16:25:20.440Z,63.60
2019-02-28T16:27:49.458Z,60.47
2019-02-28T16:30:18.620Z,63.03
2019-02-28T16:32:49.210Z,70.40
2019-02-28T16:35:18.473Z,62.00
2019-02-28T16:37:47.392Z,66.73
2019-02-28T16:40:20.750Z,63.30
2019-02-28T16:42:47.946Z,63.77
2019-02-28T16:45:26.408Z,62.40
2019-02-28T16:47:58.933Z,60.50
2019-02-28T16:50:26.335Z,63.17
2019-02-28T16:52:55.378Z,63.70
2019-02-28T16:55:24.386Z,70.50
2019-02-28T16:57:53.608Z,66.63
2019-02-28T17:00:22.769Z,69.43
2019-02-28T17:02:51.831Z,64.97
2019-02-28T17:05:26.701Z,67.60
2019-02-28T17:07:51.544Z,66.73
2019-02-28T17:10:22.830Z,64.63
2019-02-28T17:13:09.499Z,61.33
2019-02-28T17:16:02.388Z,65.37
2019-02-28T17:18:32.340Z,68.07
2019-02-28T17:21:01.378Z,60.80
2019-02-28T17:23:30.342Z,62.40
2019-02-28T17:25:59.307Z,64.40
2019-02-28T17:28:56.557Z,67.10
2019-02-28T17:31:39.725Z,67.30
2019-02-28T17:34:08.582Z,68.30
2019-02-28T17:36:37.571Z,67.10
2019-02-28T17:39:07.616Z,68.90
2019-02-28T17:41:37.183Z,67.77
2019-02-28T17:44:57.746Z,72.60
2019-02-28T17:48:31.775Z,65.17
2019-02-28T17:51:15.015Z,63.10
2019-02-28T17:54:04.329Z,64.37
2019-02-28T17:57:09.247Z,65.20
2019-02-28T18:00:03.539Z,64.50
2019-02-28T18:02:48.663Z,64.87
2019-02-28T18:05:58.337Z,65.60
2019-02-28T18:08:37.766Z,60.27
2019-02-28T18:11:38.618Z,61.80
2019-02-28T18:14:20.043Z,67.03
2019-02-28T18:17:32.378Z,69.77
2019-02-28T18:20:32.320Z,66.70
2019-02-28T18:23:39.908Z,65.00
2019-02-28T18:26:39.284Z,69.43
2019-02-28T18:29:21.438Z,66.87
2019-02-28T18:31:50.336Z,71.53
2019-02-28T18:34:22.296Z,66.03
2019-02-28T18:36:51.213Z,70.93
2019-02-28T18:39:20.169Z,73.13
2019-02-28T18:41:50.750Z,77.50
2019-02-28T18:44:19.733Z,69.90
2019-02-28T18:46:49.036Z,70.67
2019-02-28T18:49:17.995Z,73.70
2019-02-28T18:51:47.007Z,76.43
2019-02-28T18:54:15.864Z,77.90
2019-02-28T18:56:44.779Z,81.40
2019-02-28T18:59:13.703Z,74.40
2019-02-28T19:01:42.535Z,78.53
2019-02-28T19:04:11.412Z,83.03
2019-02-28T19:06:40.255Z,89.90
2019-02-28T19:09:20.501Z,97.43
2019-02-28T19:11:49.660Z,108.17
2019-02-28T19:14:18.639Z,113.93
2019-02-28T19:16:47.596Z,114.70
2019-02-28T19:19:16.587Z,115.40
2019-02-28T19:21:45.579Z,113.77
2019-02-28T19:24:14.514Z,103.80
2019-02-28T19:26:43.431Z,103.03
2019-02-28T19:29:12.306Z,89.73
2019-02-28T19:31:41.331Z,85.13
2019-02-28T19:34:10.185Z,73.10
2019-02-28T19:36:39.061Z,59.83
2019-02-28T19:39:08.323Z,59.97
2019-02-28T19:41:37.236Z,63.30
2019-02-28T19:44:06.272Z,58.33
2019-02-28T19:46:35.225Z,55.13
2019-02-28T19:49:04.152Z,60.83
2019-02-28T19:51:33.141Z,59.53
2019-02-28T19:54:02.091Z,56.40
2019-02-28T19:56:31.023Z,61.90
2019-02-28T19:58:59.955Z,62.53
2019-02-28T20:01:29.848Z,60.90
2019-02-28T20:03:58.750Z,65.13
2019-02-28T20:06:27.669Z,60.30
2019-02-28T20:08:56.680Z,52.53
2019-02-28T20:11:25.619Z,59.13
2019-02-28T20:13:54.473Z,54.00
2019-02-28T20:16:23.416Z,61.07
2019-02-28T20:18:52.449Z,53.33
2019-02-28T20:21:21.406Z,52.63
2019-02-28T20:23:50.514Z,55.13
2019-02-28T20:26:19.454Z,55.97
2019-02-28T20:28:48.399Z,54.07
2019-02-28T20:31:25.411Z,52.57
2019-02-28T20:33:54.416Z,59.47
2019-02-28T20:36:23.521Z,53.43
2019-02-28T20:38:52.407Z,55.77
2019-02-28T20:41:21.323Z,54.13
2019-02-28T20:43:50.210Z,57.17
2019-02-28T20:46:19.071Z,59.03
2019-02-28T20:48:48.032Z,56.50
2019-02-28T20:51:16.936Z,57.23
2019-02-28T20:53:45.811Z,57.23
2019-02-28T20:56:14.782Z,55.77
2019-02-28T20:58:43.744Z,58.03
2019-02-28T21:01:12.819Z,59.40
2019-02-28T21:03:41.957Z,53.13
2019-02-28T21:06:10.882Z,53.13
2019-02-28T21:08:39.762Z,54.37
2019-02-28T21:11:08.719Z,52.97
2019-02-28T21:13:37.671Z,57.47
2019-02-28T21:16:06.748Z,61.03
2019-02-28T21:18:35.626Z,54.03
2019-02-28T21:21:04.605Z,56.63
2019-02-28T21:23:33.466Z,61.33
2019-02-28T21:26:02.430Z,59.83
2019-02-28T21:28:31.275Z,64.00
2019-02-28T21:31:00.195Z,54.17
2019-02-28T21:33:29.059Z,63.27
2019-02-28T21:35:58.065Z,56.87
2019-02-28T21:38:27.174Z,59.37
2019-02-28T21:40:56.141Z,66.33
2019-02-28T21:43:25.158Z,64.07
2019-02-28T21:45:54.006Z,72.93
2019-02-28T21:48:22.916Z,67.67
2019-02-28T21:50:51.807Z,73.63
2019-02-28T21:53:20.763Z,69.40
2019-02-28T21:55:49.671Z,70.23
2019-02-28T21:58:18.486Z,68.80
2019-02-28T22:00:47.559Z,72.43
2019-02-28T22:03:16.418Z,68.03
2019-02-28T22:05:45.450Z,74.87
2019-02-28T22:08:14.373Z,71.23
2019-02-28T22:10:43.257Z,78.17
2019-02-28T22:13:12.177Z,74.30
2019-02-28T22:15:41.051Z,75.30
2019-02-28T22:18:10.100Z,75.77
2019-02-28T22:20:42.049Z,82.17
2019-02-28T22:23:13.930Z,78.53
2019-02-28T22:25:44.705Z,83.07
2019-02-28T22:28:15.915Z,90.87
2019-02-28T22:31:02.675Z,91.10
2019-02-28T22:33:39.733Z,96.53
2019-02-28T22:36:17.638Z,98.47
2019-02-28T22:38:48.489Z,106.77
2019-02-28T22:41:19.417Z,101.10
2019-02-28T22:43:50.643Z,106.83
2019-02-28T22:46:22.393Z,112.90
2019-02-28T22:48:53.151Z,101.17
2019-02-28T22:51:24.450Z,103.13
2019-02-28T22:53:55.693Z,102.83
2019-02-28T22:56:27.838Z,100.70
2019-02-28T22:58:58.698Z,91.53
2019-02-28T23:01:31.127Z,85.30
2019-02-28T23:04:01.715Z,88.37
2019-02-28T23:06:35.060Z,86.93
2019-02-28T23:09:09.278Z,85.30
2019-02-28T23:11:41.983Z,84.53
2019-02-28T23:14:12.692Z,82.17
2019-02-28T23:16:45.584Z,78.27
2019-02-28T23:19:17.819Z,82.47
2019-02-28T23:21:50.787Z,73.97
2019-02-28T23:24:20.833Z,71.00
2019-02-28T23:27:19.539Z,73.63
2019-02-28T23:30:12.507Z,70.20
2019-02-28T23:32:56.423Z,73.97
2019-02-28T23:35:34.239Z,73.27
2019-02-28T23:38:08.477Z,76.23
2019-02-28T23:40:39.412Z,79.80
2019-02-28T23:43:13.724Z,78.87
2019-02-28T23:45:45.778Z,73.10
2019-02-28T23:48:17.192Z,74.80
2019-02-28T23:50:50.561Z,83.47
2019-02-28T23:53:22.025Z,79.40
2019-02-28T23:55:55.812Z,74.07
2019-02-28T23:58:26.934Z,82.40
